sensor_id;sensor_type;location;lat;lon;timestamp;P1;durP1;ratioP1;P2;durP2;ratioP2
40635;SDS011;26642;55.766;37.828;2023-04-15T00:00:09;1.25;;;0.90;;
40635;SDS011;26642;55.766;37.828;2023-04-15T00:02:39;0.82;;;0.60;;
40635;SDS011;26642;55.766;37.828;2023-04-15T00:05:05;1.73;;;0.73;;
40635;SDS011;26642;55.766;37.828;2023-04-15T00:07:31;2.83;;;0.88;;
40635;SDS011;26642;55.766;37.828;2023-04-15T00:09:57;0.70;;;0.70;;
40635;SDS011;26642;55.766;37.828;2023-04-15T00:12:24;1.15;;;0.88;;
40635;SDS011;26642;55.766;37.828;2023-04-15T00:14:50;1.27;;;0.70;;
40635;SDS011;26642;55.766;37.828;2023-04-15T00:17:17;1.70;;;0.75;;
40635;SDS011;26642;55.766;37.828;2023-04-15T00:19:43;2.95;;;0.80;;
40635;SDS011;26642;55.766;37.828;2023-04-15T00:22:10;1.52;;;0.80;;
40635;SDS011;26642;55.766;37.828;2023-04-15T00:24:36;2.75;;;1.13;;
40635;SDS011;26642;55.766;37.828;2023-04-15T00:27:03;1.15;;;0.80;;
40635;SDS011;26642;55.766;37.828;2023-04-15T00:29:30;2.15;;;0.93;;
40635;SDS011;26642;55.766;37.828;2023-04-15T00:31:56;1.02;;;0.80;;
40635;SDS011;26642;55.766;37.828;2023-04-15T00:34:22;0.77;;;0.65;;
40635;SDS011;26642;55.766;37.828;2023-04-15T00:36:51;1.70;;;0.82;;
40635;SDS011;26642;55.766;37.828;2023-04-15T00:39:18;0.93;;;0.60;;
40635;SDS011;26642;55.766;37.828;2023-04-15T00:41:46;1.70;;;0.88;;
40635;SDS011;26642;55.766;37.828;2023-04-15T00:44:12;1.30;;;0.80;;
40635;SDS011;26642;55.766;37.828;2023-04-15T00:46:38;1.20;;;0.85;;
40635;SDS011;26642;55.766;37.828;2023-04-15T00:49:06;0.93;;;0.70;;
40635;SDS011;26642;55.766;37.828;2023-04-15T00:51:32;1.35;;;0.70;;
40635;SDS011;26642;55.766;37.828;2023-04-15T00:54:02;1.45;;;1.10;;
40635;SDS011;26642;55.766;37.828;2023-04-15T00:56:28;1.25;;;0.80;;
40635;SDS011;26642;55.766;37.828;2023-04-15T00:58:56;2.08;;;0.90;;
40635;SDS011;26642;55.766;37.828;2023-04-15T01:01:23;1.20;;;0.85;;
40635;SDS011;26642;55.766;37.828;2023-04-15T01:03:50;1.98;;;0.88;;
40635;SDS011;26642;55.766;37.828;2023-04-15T01:06:16;1.13;;;1.00;;
40635;SDS011;26642;55.766;37.828;2023-04-15T01:08:43;1.75;;;0.90;;
40635;SDS011;26642;55.766;37.828;2023-04-15T01:11:11;2.67;;;0.88;;
40635;SDS011;26642;55.766;37.828;2023-04-15T01:13:38;1.50;;;0.82;;
40635;SDS011;26642;55.766;37.828;2023-04-15T01:16:05;0.88;;;0.80;;
40635;SDS011;26642;55.766;37.828;2023-04-15T01:18:33;1.00;;;0.82;;
40635;SDS011;26642;55.766;37.828;2023-04-15T01:21:00;2.85;;;0.70;;
40635;SDS011;26642;55.766;37.828;2023-04-15T01:23:29;2.03;;;0.70;;
40635;SDS011;26642;55.766;37.828;2023-04-15T01:25:56;0.65;;;0.60;;
40635;SDS011;26642;55.766;37.828;2023-04-15T01:28:23;0.93;;;0.70;;
40635;SDS011;26642;55.766;37.828;2023-04-15T01:30:49;1.85;;;0.82;;
40635;SDS011;26642;55.766;37.828;2023-04-15T01:33:30;0.95;;;0.80;;
40635;SDS011;26642;55.766;37.828;2023-04-15T01:36:15;2.03;;;0.77;;
40635;SDS011;26642;55.766;37.828;2023-04-15T01:38:41;1.63;;;0.70;;
40635;SDS011;26642;55.766;37.828;2023-04-15T01:41:07;0.68;;;0.68;;
40635;SDS011;26642;55.766;37.828;2023-04-15T01:43:34;0.80;;;0.80;;
40635;SDS011;26642;55.766;37.828;2023-04-15T01:46:02;2.85;;;0.80;;
40635;SDS011;26642;55.766;37.828;2023-04-15T01:48:31;0.98;;;0.70;;
40635;SDS011;26642;55.766;37.828;2023-04-15T01:50:59;1.58;;;0.70;;
40635;SDS011;26642;55.766;37.828;2023-04-15T01:53:26;1.20;;;0.82;;
40635;SDS011;26642;55.766;37.828;2023-04-15T01:55:54;2.00;;;0.80;;
40635;SDS011;26642;55.766;37.828;2023-04-15T01:58:22;2.38;;;0.90;;
40635;SDS011;26642;55.766;37.828;2023-04-15T02:00:49;2.03;;;0.70;;
40635;SDS011;26642;55.766;37.828;2023-04-15T02:03:17;1.50;;;0.98;;
40635;SDS011;26642;55.766;37.828;2023-04-15T02:05:44;2.03;;;0.73;;
40635;SDS011;26642;55.766;37.828;2023-04-15T02:08:11;1.20;;;0.93;;
40635;SDS011;26642;55.766;37.828;2023-04-15T02:10:39;1.23;;;0.80;;
40635;SDS011;26642;55.766;37.828;2023-04-15T02:13:06;2.00;;;0.80;;
40635;SDS011;26642;55.766;37.828;2023-04-15T02:15:33;1.55;;;0.90;;
40635;SDS011;26642;55.766;37.828;2023-04-15T02:18:00;1.13;;;0.80;;
40635;SDS011;26642;55.766;37.828;2023-04-15T02:20:28;4.18;;;0.77;;
40635;SDS011;26642;55.766;37.828;2023-04-15T02:22:58;1.25;;;0.77;;
40635;SDS011;26642;55.766;37.828;2023-04-15T02:25:25;2.10;;;0.90;;
40635;SDS011;26642;55.766;37.828;2023-04-15T02:27:52;0.85;;;0.80;;
40635;SDS011;26642;55.766;37.828;2023-04-15T02:30:19;1.77;;;0.98;;
40635;SDS011;26642;55.766;37.828;2023-04-15T02:32:49;1.35;;;1.20;;
40635;SDS011;26642;55.766;37.828;2023-04-15T02:35:16;1.40;;;1.20;;
40635;SDS011;26642;55.766;37.828;2023-04-15T02:37:45;2.22;;;0.95;;
40635;SDS011;26642;55.766;37.828;2023-04-15T02:40:12;1.48;;;1.10;;
40635;SDS011;26642;55.766;37.828;2023-04-15T02:42:40;1.33;;;0.80;;
40635;SDS011;26642;55.766;37.828;2023-04-15T02:45:11;2.58;;;0.70;;
40635;SDS011;26642;55.766;37.828;2023-04-15T02:47:39;1.67;;;0.95;;
40635;SDS011;26642;55.766;37.828;2023-04-15T02:50:07;2.25;;;0.80;;
40635;SDS011;26642;55.766;37.828;2023-04-15T02:52:39;1.38;;;0.90;;
40635;SDS011;26642;55.766;37.828;2023-04-15T02:55:07;1.13;;;0.90;;
40635;SDS011;26642;55.766;37.828;2023-04-15T02:57:36;1.95;;;0.88;;
40635;SDS011;26642;55.766;37.828;2023-04-15T03:00:07;1.80;;;1.17;;
40635;SDS011;26642;55.766;37.828;2023-04-15T03:02:39;1.73;;;1.00;;
40635;SDS011;26642;55.766;37.828;2023-04-15T03:05:10;1.10;;;0.90;;
40635;SDS011;26642;55.766;37.828;2023-04-15T03:07:43;1.38;;;0.93;;
40635;SDS011;26642;55.766;37.828;2023-04-15T03:10:11;0.75;;;0.75;;
40635;SDS011;26642;55.766;37.828;2023-04-15T03:12:38;0.98;;;0.90;;
40635;SDS011;26642;55.766;37.828;2023-04-15T03:15:08;0.95;;;0.70;;
40635;SDS011;26642;55.766;37.828;2023-04-15T03:17:40;0.85;;;0.82;;
40635;SDS011;26642;55.766;37.828;2023-04-15T03:20:08;2.15;;;1.10;;
40635;SDS011;26642;55.766;37.828;2023-04-15T03:22:35;3.13;;;0.90;;
40635;SDS011;26642;55.766;37.828;2023-04-15T03:25:04;1.85;;;1.15;;
40635;SDS011;26642;55.766;37.828;2023-04-15T03:27:33;2.60;;;1.00;;
40635;SDS011;26642;55.766;37.828;2023-04-15T03:30:03;2.65;;;1.17;;
40635;SDS011;26642;55.766;37.828;2023-04-15T03:32:33;1.63;;;1.13;;
40635;SDS011;26642;55.766;37.828;2023-04-15T03:35:00;1.73;;;0.95;;
40635;SDS011;26642;55.766;37.828;2023-04-15T03:37:27;1.75;;;0.85;;
40635;SDS011;26642;55.766;37.828;2023-04-15T03:39:54;1.15;;;0.90;;
40635;SDS011;26642;55.766;37.828;2023-04-15T03:42:22;1.08;;;0.90;;
40635;SDS011;26642;55.766;37.828;2023-04-15T03:44:49;1.25;;;1.00;;
40635;SDS011;26642;55.766;37.828;2023-04-15T03:47:16;1.80;;;0.90;;
40635;SDS011;26642;55.766;37.828;2023-04-15T03:49:44;1.77;;;1.10;;
40635;SDS011;26642;55.766;37.828;2023-04-15T03:52:11;1.95;;;1.02;;
40635;SDS011;26642;55.766;37.828;2023-04-15T03:54:38;2.50;;;0.80;;
40635;SDS011;26642;55.766;37.828;2023-04-15T03:57:05;2.40;;;0.85;;
40635;SDS011;26642;55.766;37.828;2023-04-15T03:59:32;1.67;;;1.05;;
40635;SDS011;26642;55.766;37.828;2023-04-15T04:01:59;2.45;;;0.90;;
40635;SDS011;26642;55.766;37.828;2023-04-15T04:04:26;1.00;;;0.80;;
40635;SDS011;26642;55.766;37.828;2023-04-15T04:06:54;2.20;;;0.90;;
40635;SDS011;26642;55.766;37.828;2023-04-15T04:09:21;3.15;;;0.90;;
40635;SDS011;26642;55.766;37.828;2023-04-15T04:11:48;1.48;;;1.15;;
40635;SDS011;26642;55.766;37.828;2023-04-15T04:14:15;1.88;;;0.98;;
40635;SDS011;26642;55.766;37.828;2023-04-15T04:16:42;1.23;;;0.93;;
40635;SDS011;26642;55.766;37.828;2023-04-15T04:19:10;1.95;;;1.00;;
40635;SDS011;26642;55.766;37.828;2023-04-15T04:21:37;3.45;;;1.30;;
40635;SDS011;26642;55.766;37.828;2023-04-15T04:24:05;2.15;;;1.00;;
40635;SDS011;26642;55.766;37.828;2023-04-15T04:26:32;2.47;;;0.90;;
40635;SDS011;26642;55.766;37.828;2023-04-15T04:28:59;2.40;;;1.38;;
40635;SDS011;26642;55.766;37.828;2023-04-15T04:31:26;1.35;;;1.17;;
40635;SDS011;26642;55.766;37.828;2023-04-15T04:33:54;2.70;;;1.30;;
40635;SDS011;26642;55.766;37.828;2023-04-15T04:36:21;3.25;;;0.95;;
40635;SDS011;26642;55.766;37.828;2023-04-15T04:38:48;2.92;;;1.02;;
40635;SDS011;26642;55.766;37.828;2023-04-15T04:41:15;2.53;;;1.25;;
40635;SDS011;26642;55.766;37.828;2023-04-15T04:43:43;2.28;;;1.20;;
40635;SDS011;26642;55.766;37.828;2023-04-15T04:46:10;1.88;;;0.98;;
40635;SDS011;26642;55.766;37.828;2023-04-15T04:48:38;3.47;;;1.10;;
40635;SDS011;26642;55.766;37.828;2023-04-15T04:51:05;2.35;;;1.00;;
40635;SDS011;26642;55.766;37.828;2023-04-15T04:53:33;2.00;;;1.02;;
40635;SDS011;26642;55.766;37.828;2023-04-15T04:56:03;1.63;;;0.90;;
40635;SDS011;26642;55.766;37.828;2023-04-15T04:58:30;1.67;;;1.10;;
40635;SDS011;26642;55.766;37.828;2023-04-15T05:00:57;1.73;;;1.10;;
40635;SDS011;26642;55.766;37.828;2023-04-15T05:03:25;2.45;;;1.30;;
40635;SDS011;26642;55.766;37.828;2023-04-15T05:05:52;3.95;;;1.10;;
40635;SDS011;26642;55.766;37.828;2023-04-15T05:08:20;2.45;;;1.33;;
40635;SDS011;26642;55.766;37.828;2023-04-15T05:10:47;2.00;;;1.33;;
40635;SDS011;26642;55.766;37.828;2023-04-15T05:13:14;3.10;;;1.17;;
40635;SDS011;26642;55.766;37.828;2023-04-15T05:15:41;1.90;;;1.05;;
40635;SDS011;26642;55.766;37.828;2023-04-15T05:18:09;3.00;;;1.25;;
40635;SDS011;26642;55.766;37.828;2023-04-15T05:20:36;3.92;;;1.20;;
40635;SDS011;26642;55.766;37.828;2023-04-15T05:23:03;2.13;;;1.00;;
40635;SDS011;26642;55.766;37.828;2023-04-15T05:25:31;2.15;;;1.10;;
40635;SDS011;26642;55.766;37.828;2023-04-15T05:27:58;2.70;;;1.10;;
40635;SDS011;26642;55.766;37.828;2023-04-15T05:30:25;1.40;;;0.90;;
40635;SDS011;26642;55.766;37.828;2023-04-15T05:32:53;1.90;;;1.27;;
40635;SDS011;26642;55.766;37.828;2023-04-15T05:35:20;2.42;;;1.25;;
40635;SDS011;26642;55.766;37.828;2023-04-15T05:37:47;3.25;;;1.13;;
40635;SDS011;26642;55.766;37.828;2023-04-15T05:40:14;2.45;;;1.20;;
40635;SDS011;26642;55.766;37.828;2023-04-15T05:42:42;2.47;;;1.08;;
40635;SDS011;26642;55.766;37.828;2023-04-15T05:45:09;2.53;;;1.10;;
40635;SDS011;26642;55.766;37.828;2023-04-15T05:47:36;1.27;;;0.93;;
40635;SDS011;26642;55.766;37.828;2023-04-15T05:50:04;1.50;;;0.93;;
40635;SDS011;26642;55.766;37.828;2023-04-15T05:52:32;1.17;;;0.95;;
40635;SDS011;26642;55.766;37.828;2023-04-15T05:54:59;2.03;;;1.10;;
40635;SDS011;26642;55.766;37.828;2023-04-15T05:57:26;1.40;;;1.00;;
40635;SDS011;26642;55.766;37.828;2023-04-15T05:59:53;2.97;;;1.10;;
40635;SDS011;26642;55.766;37.828;2023-04-15T06:02:22;1.80;;;0.80;;
40635;SDS011;26642;55.766;37.828;2023-04-15T06:04:49;2.25;;;0.93;;
40635;SDS011;26642;55.766;37.828;2023-04-15T06:07:17;2.92;;;1.30;;
40635;SDS011;26642;55.766;37.828;2023-04-15T06:09:44;1.75;;;1.17;;
40635;SDS011;26642;55.766;37.828;2023-04-15T06:12:11;1.65;;;1.20;;
40635;SDS011;26642;55.766;37.828;2023-04-15T06:14:38;1.92;;;1.20;;
40635;SDS011;26642;55.766;37.828;2023-04-15T06:17:06;2.13;;;0.95;;
40635;SDS011;26642;55.766;37.828;2023-04-15T06:19:34;1.60;;;0.90;;
40635;SDS011;26642;55.766;37.828;2023-04-15T06:22:02;2.30;;;1.10;;
40635;SDS011;26642;55.766;37.828;2023-04-15T06:24:29;2.05;;;1.20;;
40635;SDS011;26642;55.766;37.828;2023-04-15T06:26:58;2.67;;;1.25;;
40635;SDS011;26642;55.766;37.828;2023-04-15T06:29:25;3.47;;;1.20;;
40635;SDS011;26642;55.766;37.828;2023-04-15T06:31:52;2.45;;;1.10;;
40635;SDS011;26642;55.766;37.828;2023-04-15T06:34:21;2.10;;;1.10;;
40635;SDS011;26642;55.766;37.828;2023-04-15T06:36:49;1.35;;;1.00;;
40635;SDS011;26642;55.766;37.828;2023-04-15T06:39:16;2.25;;;1.30;;
40635;SDS011;26642;55.766;37.828;2023-04-15T06:41:43;2.45;;;1.42;;
40635;SDS011;26642;55.766;37.828;2023-04-15T06:44:12;3.00;;;2.10;;
40635;SDS011;26642;55.766;37.828;2023-04-15T06:46:39;2.97;;;1.90;;
40635;SDS011;26642;55.766;37.828;2023-04-15T06:49:06;6.18;;;2.10;;
40635;SDS011;26642;55.766;37.828;2023-04-15T06:51:34;3.58;;;2.00;;
40635;SDS011;26642;55.766;37.828;2023-04-15T06:54:02;3.92;;;2.08;;
40635;SDS011;26642;55.766;37.828;2023-04-15T06:56:31;2.20;;;1.80;;
40635;SDS011;26642;55.766;37.828;2023-04-15T06:58:59;3.03;;;2.13;;
40635;SDS011;26642;55.766;37.828;2023-04-15T07:01:26;3.00;;;2.25;;
40635;SDS011;26642;55.766;37.828;2023-04-15T07:03:54;5.07;;;2.38;;
40635;SDS011;26642;55.766;37.828;2023-04-15T07:06:21;3.00;;;2.03;;
40635;SDS011;26642;55.766;37.828;2023-04-15T07:08:49;2.63;;;1.70;;
40635;SDS011;26642;55.766;37.828;2023-04-15T07:11:17;3.42;;;1.98;;
40635;SDS011;26642;55.766;37.828;2023-04-15T07:13:44;2.47;;;1.58;;
40635;SDS011;26642;55.766;37.828;2023-04-15T07:16:11;2.28;;;1.58;;
40635;SDS011;26642;55.766;37.828;2023-04-15T07:18:39;2.83;;;1.40;;
40635;SDS011;26642;55.766;37.828;2023-04-15T07:21:06;2.53;;;1.80;;
40635;SDS011;26642;55.766;37.828;2023-04-15T07:23:33;1.92;;;1.38;;
40635;SDS011;26642;55.766;37.828;2023-04-15T07:26:01;3.80;;;1.42;;
40635;SDS011;26642;55.766;37.828;2023-04-15T07:28:29;3.25;;;1.40;;
40635;SDS011;26642;55.766;37.828;2023-04-15T07:30:56;2.55;;;1.55;;
40635;SDS011;26642;55.766;37.828;2023-04-15T07:33:23;3.20;;;1.27;;
40635;SDS011;26642;55.766;37.828;2023-04-15T07:35:50;2.95;;;1.23;;
40635;SDS011;26642;55.766;37.828;2023-04-15T07:38:18;2.55;;;1.35;;
40635;SDS011;26642;55.766;37.828;2023-04-15T07:40:45;1.60;;;1.25;;
40635;SDS011;26642;55.766;37.828;2023-04-15T07:43:12;1.92;;;1.30;;
40635;SDS011;26642;55.766;37.828;2023-04-15T07:45:39;2.25;;;1.10;;
40635;SDS011;26642;55.766;37.828;2023-04-15T07:48:07;2.47;;;1.30;;
40635;SDS011;26642;55.766;37.828;2023-04-15T07:50:34;1.70;;;0.95;;
40635;SDS011;26642;55.766;37.828;2023-04-15T07:53:01;1.88;;;1.20;;
40635;SDS011;26642;55.766;37.828;2023-04-15T07:55:28;2.30;;;1.10;;
40635;SDS011;26642;55.766;37.828;2023-04-15T07:57:56;1.48;;;1.10;;
40635;SDS011;26642;55.766;37.828;2023-04-15T08:00:23;1.73;;;1.00;;
40635;SDS011;26642;55.766;37.828;2023-04-15T08:02:50;1.33;;;1.02;;
40635;SDS011;26642;55.766;37.828;2023-04-15T08:05:19;0.80;;;0.80;;
40635;SDS011;26642;55.766;37.828;2023-04-15T08:07:46;1.98;;;1.30;;
40635;SDS011;26642;55.766;37.828;2023-04-15T08:10:13;1.10;;;0.90;;
40635;SDS011;26642;55.766;37.828;2023-04-15T08:12:41;1.65;;;1.05;;
40635;SDS011;26642;55.766;37.828;2023-04-15T08:15:14;2.45;;;1.20;;
40635;SDS011;26642;55.766;37.828;2023-04-15T08:17:42;2.35;;;1.00;;
40635;SDS011;26642;55.766;37.828;2023-04-15T08:20:09;1.65;;;0.82;;
40635;SDS011;26642;55.766;37.828;2023-04-15T08:22:37;1.90;;;1.15;;
40635;SDS011;26642;55.766;37.828;2023-04-15T08:25:04;2.95;;;1.10;;
40635;SDS011;26642;55.766;37.828;2023-04-15T08:27:32;2.95;;;0.95;;
40635;SDS011;26642;55.766;37.828;2023-04-15T08:29:59;1.42;;;0.93;;
40635;SDS011;26642;55.766;37.828;2023-04-15T08:32:27;1.38;;;0.98;;
40635;SDS011;26642;55.766;37.828;2023-04-15T08:34:54;2.28;;;1.00;;
40635;SDS011;26642;55.766;37.828;2023-04-15T08:37:21;2.20;;;1.10;;
40635;SDS011;26642;55.766;37.828;2023-04-15T08:39:48;2.33;;;1.23;;
40635;SDS011;26642;55.766;37.828;2023-04-15T08:42:16;1.63;;;1.02;;
40635;SDS011;26642;55.766;37.828;2023-04-15T08:44:44;1.63;;;1.00;;
40635;SDS011;26642;55.766;37.828;2023-04-15T08:47:13;1.13;;;0.95;;
40635;SDS011;26642;55.766;37.828;2023-04-15T08:49:46;4.30;;;1.25;;
40635;SDS011;26642;55.766;37.828;2023-04-15T08:52:19;1.58;;;1.05;;
40635;SDS011;26642;55.766;37.828;2023-04-15T08:54:46;2.13;;;1.20;;
40635;SDS011;26642;55.766;37.828;2023-04-15T08:57:14;2.92;;;1.50;;
40635;SDS011;26642;55.766;37.828;2023-04-15T08:59:42;3.63;;;1.50;;
40635;SDS011;26642;55.766;37.828;2023-04-15T09:02:10;2.42;;;1.60;;
40635;SDS011;26642;55.766;37.828;2023-04-15T09:04:38;5.20;;;2.38;;
40635;SDS011;26642;55.766;37.828;2023-04-15T09:07:05;5.30;;;1.88;;
40635;SDS011;26642;55.766;37.828;2023-04-15T09:09:32;2.35;;;1.15;;
40635;SDS011;26642;55.766;37.828;2023-04-15T09:12:01;5.57;;;1.52;;
40635;SDS011;26642;55.766;37.828;2023-04-15T09:14:29;3.22;;;1.70;;
40635;SDS011;26642;55.766;37.828;2023-04-15T09:16:58;2.25;;;1.58;;
40635;SDS011;26642;55.766;37.828;2023-04-15T09:19:27;6.25;;;1.40;;
40635;SDS011;26642;55.766;37.828;2023-04-15T09:21:56;3.45;;;1.65;;
40635;SDS011;26642;55.766;37.828;2023-04-15T09:24:24;3.58;;;1.60;;
40635;SDS011;26642;55.766;37.828;2023-04-15T09:27:01;5.40;;;2.00;;
40635;SDS011;26642;55.766;37.828;2023-04-15T09:29:29;4.35;;;2.28;;
40635;SDS011;26642;55.766;37.828;2023-04-15T09:32:07;6.70;;;3.83;;
40635;SDS011;26642;55.766;37.828;2023-04-15T09:34:39;5.43;;;3.20;;
40635;SDS011;26642;55.766;37.828;2023-04-15T09:37:06;6.63;;;3.65;;
40635;SDS011;26642;55.766;37.828;2023-04-15T09:39:49;9.07;;;6.18;;
40635;SDS011;26642;55.766;37.828;2023-04-15T09:42:18;11.02;;;7.13;;
40635;SDS011;26642;55.766;37.828;2023-04-15T09:44:52;11.20;;;7.80;;
40635;SDS011;26642;55.766;37.828;2023-04-15T09:47:26;11.30;;;7.32;;
40635;SDS011;26642;55.766;37.828;2023-04-15T09:49:58;11.13;;;6.72;;
40635;SDS011;26642;55.766;37.828;2023-04-15T09:52:26;6.13;;;4.88;;
40635;SDS011;26642;55.766;37.828;2023-04-15T09:54:55;18.20;;;10.10;;
40635;SDS011;26642;55.766;37.828;2023-04-15T09:57:24;22.23;;;14.05;;
40635;SDS011;26642;55.766;37.828;2023-04-15T09:59:59;15.32;;;10.75;;
40635;SDS011;26642;55.766;37.828;2023-04-15T10:02:26;17.77;;;11.57;;
40635;SDS011;26642;55.766;37.828;2023-04-15T10:04:56;18.00;;;12.70;;
40635;SDS011;26642;55.766;37.828;2023-04-15T10:07:24;16.70;;;12.85;;
40635;SDS011;26642;55.766;37.828;2023-04-15T10:09:51;18.00;;;12.40;;
40635;SDS011;26642;55.766;37.828;2023-04-15T10:12:19;14.88;;;9.10;;
40635;SDS011;26642;55.766;37.828;2023-04-15T10:14:51;11.98;;;8.68;;
40635;SDS011;26642;55.766;37.828;2023-04-15T10:17:22;11.77;;;8.30;;
40635;SDS011;26642;55.766;37.828;2023-04-15T10:19:52;13.20;;;8.40;;
40635;SDS011;26642;55.766;37.828;2023-04-15T10:22:21;11.55;;;6.95;;
40635;SDS011;26642;55.766;37.828;2023-04-15T10:24:49;9.98;;;7.15;;
40635;SDS011;26642;55.766;37.828;2023-04-15T10:27:17;8.77;;;5.47;;
40635;SDS011;26642;55.766;37.828;2023-04-15T10:29:44;6.90;;;4.68;;
40635;SDS011;26642;55.766;37.828;2023-04-15T10:32:12;8.40;;;5.63;;
40635;SDS011;26642;55.766;37.828;2023-04-15T10:34:39;6.80;;;3.90;;
40635;SDS011;26642;55.766;37.828;2023-04-15T10:37:08;9.57;;;5.07;;
40635;SDS011;26642;55.766;37.828;2023-04-15T10:39:40;8.18;;;4.85;;
40635;SDS011;26642;55.766;37.828;2023-04-15T10:42:10;6.85;;;4.72;;
40635;SDS011;26642;55.766;37.828;2023-04-15T10:44:49;6.38;;;3.92;;
40635;SDS011;26642;55.766;37.828;2023-04-15T10:47:22;9.77;;;4.50;;
40635;SDS011;26642;55.766;37.828;2023-04-15T10:49:50;4.93;;;3.88;;
40635;SDS011;26642;55.766;37.828;2023-04-15T10:52:26;4.95;;;3.47;;
40635;SDS011;26642;55.766;37.828;2023-04-15T10:55:41;5.50;;;3.58;;
40635;SDS011;26642;55.766;37.828;2023-04-15T10:57:50;4.95;;;3.08;;
40635;SDS011;26642;55.766;37.828;2023-04-15T11:00:19;4.43;;;2.80;;
40635;SDS011;26642;55.766;37.828;2023-04-15T11:08:08;4.68;;;3.03;;
40635;SDS011;26642;55.766;37.828;2023-04-15T11:15:40;5.80;;;3.22;;
40635;SDS011;26642;55.766;37.828;2023-04-15T11:20:38;5.30;;;3.03;;
40635;SDS011;26642;55.766;37.828;2023-04-15T11:23:08;4.85;;;2.40;;
40635;SDS011;26642;55.766;37.828;2023-04-15T11:25:35;6.95;;;2.50;;
40635;SDS011;26642;55.766;37.828;2023-04-15T11:28:03;4.05;;;2.45;;
40635;SDS011;26642;55.766;37.828;2023-04-15T11:30:32;4.50;;;2.35;;
40635;SDS011;26642;55.766;37.828;2023-04-15T11:33:02;3.42;;;2.38;;
40635;SDS011;26642;55.766;37.828;2023-04-15T11:35:30;3.25;;;2.20;;
40635;SDS011;26642;55.766;37.828;2023-04-15T11:38:03;4.10;;;1.98;;
40635;SDS011;26642;55.766;37.828;2023-04-15T11:40:34;3.55;;;1.90;;
40635;SDS011;26642;55.766;37.828;2023-04-15T11:45:32;4.43;;;1.90;;
40635;SDS011;26642;55.766;37.828;2023-04-15T11:50:33;7.63;;;2.42;;
40635;SDS011;26642;55.766;37.828;2023-04-15T11:53:01;2.70;;;1.70;;
40635;SDS011;26642;55.766;37.828;2023-04-15T11:55:28;4.03;;;2.22;;
40635;SDS011;26642;55.766;37.828;2023-04-15T11:58:07;3.63;;;2.00;;
40635;SDS011;26642;55.766;37.828;2023-04-15T12:00:33;3.78;;;2.05;;
40635;SDS011;26642;55.766;37.828;2023-04-15T12:13:55;6.50;;;2.90;;
40635;SDS011;26642;55.766;37.828;2023-04-15T12:16:22;5.22;;;2.95;;
40635;SDS011;26642;55.766;37.828;2023-04-15T12:18:49;6.68;;;3.15;;
40635;SDS011;26642;55.766;37.828;2023-04-15T12:21:26;5.75;;;2.80;;
40635;SDS011;26642;55.766;37.828;2023-04-15T12:24:00;4.97;;;2.78;;
40635;SDS011;26642;55.766;37.828;2023-04-15T12:26:29;3.50;;;2.10;;
40635;SDS011;26642;55.766;37.828;2023-04-15T12:29:02;2.78;;;2.40;;
40635;SDS011;26642;55.766;37.828;2023-04-15T12:31:29;4.90;;;2.47;;
40635;SDS011;26642;55.766;37.828;2023-04-15T12:33:56;3.75;;;2.35;;
40635;SDS011;26642;55.766;37.828;2023-04-15T12:36:23;6.13;;;2.40;;
40635;SDS011;26642;55.766;37.828;2023-04-15T12:38:49;4.03;;;2.42;;
40635;SDS011;26642;55.766;37.828;2023-04-15T12:41:15;5.78;;;2.75;;
40635;SDS011;26642;55.766;37.828;2023-04-15T12:43:44;6.20;;;2.47;;
40635;SDS011;26642;55.766;37.828;2023-04-15T12:46:20;5.82;;;2.92;;
40635;SDS011;26642;55.766;37.828;2023-04-15T12:48:46;5.30;;;2.45;;
40635;SDS011;26642;55.766;37.828;2023-04-15T12:51:12;4.07;;;2.45;;
40635;SDS011;26642;55.766;37.828;2023-04-15T12:53:39;2.58;;;1.98;;
40635;SDS011;26642;55.766;37.828;2023-04-15T12:56:04;2.58;;;1.70;;
40635;SDS011;26642;55.766;37.828;2023-04-15T12:58:31;5.07;;;2.15;;
40635;SDS011;26642;55.766;37.828;2023-04-15T13:00:57;3.88;;;2.00;;
40635;SDS011;26642;55.766;37.828;2023-04-15T13:03:23;3.28;;;2.05;;
40635;SDS011;26642;55.766;37.828;2023-04-15T13:05:49;2.90;;;2.05;;
40635;SDS011;26642;55.766;37.828;2023-04-15T13:08:15;5.40;;;1.98;;
40635;SDS011;26642;55.766;37.828;2023-04-15T13:10:41;5.07;;;2.33;;
40635;SDS011;26642;55.766;37.828;2023-04-15T13:13:07;4.40;;;2.40;;
40635;SDS011;26642;55.766;37.828;2023-04-15T13:15:33;4.07;;;2.47;;
40635;SDS011;26642;55.766;37.828;2023-04-15T13:17:59;3.55;;;2.40;;
40635;SDS011;26642;55.766;37.828;2023-04-15T13:20:25;5.05;;;2.38;;
40635;SDS011;26642;55.766;37.828;2023-04-15T13:22:52;4.32;;;2.50;;
40635;SDS011;26642;55.766;37.828;2023-04-15T13:25:18;6.45;;;2.72;;
40635;SDS011;26642;55.766;37.828;2023-04-15T13:27:44;3.63;;;2.47;;
40635;SDS011;26642;55.766;37.828;2023-04-15T13:30:10;5.45;;;2.45;;
40635;SDS011;26642;55.766;37.828;2023-04-15T13:32:37;4.53;;;2.47;;
40635;SDS011;26642;55.766;37.828;2023-04-15T13:35:03;4.35;;;2.50;;
40635;SDS011;26642;55.766;37.828;2023-04-15T13:37:30;3.30;;;2.00;;
40635;SDS011;26642;55.766;37.828;2023-04-15T13:39:56;3.17;;;2.15;;
40635;SDS011;26642;55.766;37.828;2023-04-15T13:42:22;3.45;;;2.45;;
40635;SDS011;26642;55.766;37.828;2023-04-15T13:44:49;5.53;;;2.42;;
40635;SDS011;26642;55.766;37.828;2023-04-15T13:47:16;4.30;;;2.30;;
40635;SDS011;26642;55.766;37.828;2023-04-15T13:49:43;4.68;;;2.40;;
40635;SDS011;26642;55.766;37.828;2023-04-15T13:52:10;4.18;;;2.55;;
40635;SDS011;26642;55.766;37.828;2023-04-15T13:54:36;5.85;;;2.42;;
40635;SDS011;26642;55.766;37.828;2023-04-15T13:57:02;4.55;;;2.58;;
40635;SDS011;26642;55.766;37.828;2023-04-15T13:59:29;3.47;;;2.60;;
40635;SDS011;26642;55.766;37.828;2023-04-15T14:01:55;3.30;;;2.30;;
40635;SDS011;26642;55.766;37.828;2023-04-15T14:04:21;3.25;;;2.30;;
40635;SDS011;26642;55.766;37.828;2023-04-15T14:06:47;4.97;;;2.30;;
40635;SDS011;26642;55.766;37.828;2023-04-15T14:09:14;5.63;;;3.22;;
40635;SDS011;26642;55.766;37.828;2023-04-15T14:11:40;5.25;;;2.90;;
40635;SDS011;26642;55.766;37.828;2023-04-15T14:14:06;6.03;;;3.20;;
40635;SDS011;26642;55.766;37.828;2023-04-15T14:16:32;5.70;;;2.72;;
40635;SDS011;26642;55.766;37.828;2023-04-15T14:18:58;3.95;;;2.78;;
40635;SDS011;26642;55.766;37.828;2023-04-15T14:21:24;4.80;;;2.58;;
40635;SDS011;26642;55.766;37.828;2023-04-15T14:23:52;4.47;;;2.75;;
40635;SDS011;26642;55.766;37.828;2023-04-15T14:26:18;4.65;;;2.55;;
40635;SDS011;26642;55.766;37.828;2023-04-15T14:28:44;6.00;;;2.80;;
40635;SDS011;26642;55.766;37.828;2023-04-15T14:31:10;4.55;;;2.80;;
40635;SDS011;26642;55.766;37.828;2023-04-15T14:33:36;7.40;;;3.65;;
40635;SDS011;26642;55.766;37.828;2023-04-15T14:36:02;5.47;;;3.17;;
40635;SDS011;26642;55.766;37.828;2023-04-15T14:38:28;6.13;;;3.17;;
40635;SDS011;26642;55.766;37.828;2023-04-15T14:40:55;5.88;;;3.38;;
40635;SDS011;26642;55.766;37.828;2023-04-15T14:43:21;8.38;;;3.20;;
40635;SDS011;26642;55.766;37.828;2023-04-15T14:45:47;4.60;;;3.05;;
40635;SDS011;26642;55.766;37.828;2023-04-15T14:48:13;5.10;;;3.00;;
40635;SDS011;26642;55.766;37.828;2023-04-15T14:50:39;4.50;;;2.80;;
40635;SDS011;26642;55.766;37.828;2023-04-15T14:53:05;6.40;;;2.78;;
40635;SDS011;26642;55.766;37.828;2023-04-15T14:55:31;6.63;;;2.78;;
40635;SDS011;26642;55.766;37.828;2023-04-15T14:57:57;5.82;;;2.70;;
40635;SDS011;26642;55.766;37.828;2023-04-15T15:00:23;7.13;;;2.80;;
40635;SDS011;26642;55.766;37.828;2023-04-15T15:02:49;6.70;;;2.65;;
40635;SDS011;26642;55.766;37.828;2023-04-15T15:05:15;3.78;;;2.55;;